sensor_id;sensor_type;location;lat;lon;timestamp;temperature;humidity
48007;DHT22;33771;48.180;11.400;2023-11-19T00:00:10;4.80;99.90
48007;DHT22;33771;48.180;11.400;2023-11-19T00:02:40;4.80;99.90
48007;DHT22;33771;48.180;11.400;2023-11-19T00:05:06;4.80;99.90
48007;DHT22;33771;48.180;11.400;2023-11-19T00:07:35;4.80;99.90
48007;DHT22;33771;48.180;11.400;2023-11-19T00:10:03;4.90;99.90
48007;DHT22;33771;48.180;11.400;2023-11-19T00:12:32;4.90;99.90
48007;DHT22;33771;48.180;11.400;2023-11-19T00:14:58;4.90;99.90
48007;DHT22;33771;48.180;11.400;2023-11-19T00:17:23;4.90;99.90
48007;DHT22;33771;48.180;11.400;2023-11-19T00:19:49;4.90;99.90
48007;DHT22;33771;48.180;11.400;2023-11-19T00:22:16;5.00;99.90
48007;DHT22;33771;48.180;11.400;2023-11-19T00:24:42;5.10;99.90
48007;DHT22;33771;48.180;11.400;2023-11-19T00:27:07;5.10;99.90
48007;DHT22;33771;48.180;11.400;2023-11-19T00:29:33;5.10;99.90
48007;DHT22;33771;48.180;11.400;2023-11-19T00:31:59;5.10;99.90
48007;DHT22;33771;48.180;11.400;2023-11-19T00:34:24;5.20;99.90
48007;DHT22;33771;48.180;11.400;2023-11-19T00:36:50;5.20;99.90
48007;DHT22;33771;48.180;11.400;2023-11-19T00:39:15;5.20;99.90
48007;DHT22;33771;48.180;11.400;2023-11-19T00:41:41;5.20;99.90
48007;DHT22;33771;48.180;11.400;2023-11-19T00:44:07;5.30;99.90
48007;DHT22;33771;48.180;11.400;2023-11-19T00:46:32;5.30;99.90
48007;DHT22;33771;48.180;11.400;2023-11-19T00:48:58;5.30;99.90
48007;DHT22;33771;48.180;11.400;2023-11-19T00:51:25;5.30;99.90
48007;DHT22;33771;48.180;11.400;2023-11-19T00:53:52;5.40;99.90
48007;DHT22;33771;48.180;11.400;2023-11-19T00:56:18;5.40;99.90
48007;DHT22;33771;48.180;11.400;2023-11-19T00:58:44;5.40;99.90
48007;DHT22;33771;48.180;11.400;2023-11-19T01:01:11;5.40;99.90
48007;DHT22;33771;48.180;11.400;2023-11-19T01:03:37;5.50;99.90
48007;DHT22;33771;48.180;11.400;2023-11-19T01:06:03;5.50;99.90
48007;DHT22;33771;48.180;11.400;2023-11-19T01:08:29;5.50;99.90
48007;DHT22;33771;48.180;11.400;2023-11-19T01:10:54;5.50;99.90
48007;DHT22;33771;48.180;11.400;2023-11-19T01:13:20;5.50;99.90
48007;DHT22;33771;48.180;11.400;2023-11-19T01:15:46;5.60;99.90
48007;DHT22;33771;48.180;11.400;2023-11-19T01:18:12;5.60;99.90
48007;DHT22;33771;48.180;11.400;2023-11-19T01:20:38;5.60;99.90
48007;DHT22;33771;48.180;11.400;2023-11-19T01:23:03;5.60;99.90
48007;DHT22;33771;48.180;11.400;2023-11-19T01:25:29;5.70;99.90
48007;DHT22;33771;48.180;11.400;2023-11-19T01:27:55;5.70;99.90
48007;DHT22;33771;48.180;11.400;2023-11-19T01:30:24;5.70;99.90
48007;DHT22;33771;48.180;11.400;2023-11-19T01:32:49;5.70;99.90
48007;DHT22;33771;48.180;11.400;2023-11-19T01:35:15;5.70;99.90
48007;DHT22;33771;48.180;11.400;2023-11-19T01:37:40;5.80;99.90
48007;DHT22;33771;48.180;11.400;2023-11-19T01:40:06;5.80;99.90
48007;DHT22;33771;48.180;11.400;2023-11-19T01:42:37;5.80;99.90
48007;DHT22;33771;48.180;11.400;2023-11-19T01:45:07;5.90;99.90
48007;DHT22;33771;48.180;11.400;2023-11-19T01:47:34;5.90;99.90
48007;DHT22;33771;48.180;11.400;2023-11-19T01:50:01;6.00;99.90
48007;DHT22;33771;48.180;11.400;2023-11-19T01:52:33;6.00;99.90
48007;DHT22;33771;48.180;11.400;2023-11-19T01:55:01;6.10;99.90
48007;DHT22;33771;48.180;11.400;2023-11-19T01:57:27;6.20;99.90
48007;DHT22;33771;48.180;11.400;2023-11-19T01:59:53;6.30;99.90
48007;DHT22;33771;48.180;11.400;2023-11-19T02:02:19;6.30;99.90
48007;DHT22;33771;48.180;11.400;2023-11-19T02:04:49;6.40;99.90
48007;DHT22;33771;48.180;11.400;2023-11-19T02:07:16;6.50;99.90
48007;DHT22;33771;48.180;11.400;2023-11-19T02:09:43;6.50;99.90
48007;DHT22;33771;48.180;11.400;2023-11-19T02:12:09;6.60;99.90
48007;DHT22;33771;48.180;11.400;2023-11-19T02:14:37;6.70;99.90
48007;DHT22;33771;48.180;11.400;2023-11-19T02:17:03;6.80;99.90
48007;DHT22;33771;48.180;11.400;2023-11-19T02:19:29;6.90;99.90
48007;DHT22;33771;48.180;11.400;2023-11-19T02:21:54;7.00;99.90
48007;DHT22;33771;48.180;11.400;2023-11-19T02:24:22;7.10;99.90
48007;DHT22;33771;48.180;11.400;2023-11-19T02:27:10;7.20;99.90
48007;DHT22;33771;48.180;11.400;2023-11-19T02:29:41;7.30;99.90
48007;DHT22;33771;48.180;11.400;2023-11-19T02:32:07;7.30;99.90
48007;DHT22;33771;48.180;11.400;2023-11-19T02:34:34;7.40;99.90
48007;DHT22;33771;48.180;11.400;2023-11-19T02:37:00;7.40;99.90
48007;DHT22;33771;48.180;11.400;2023-11-19T02:39:26;7.50;99.90
48007;DHT22;33771;48.180;11.400;2023-11-19T02:41:51;7.50;99.90
48007;DHT22;33771;48.180;11.400;2023-11-19T02:44:18;7.60;99.90
48007;DHT22;33771;48.180;11.400;2023-11-19T02:46:44;7.60;99.90
48007;DHT22;33771;48.180;11.400;2023-11-19T02:49:09;7.70;99.90
48007;DHT22;33771;48.180;11.400;2023-11-19T02:51:35;7.70;99.90
48007;DHT22;33771;48.180;11.400;2023-11-19T02:54:01;7.70;99.90
48007;DHT22;33771;48.180;11.400;2023-11-19T02:56:29;7.80;99.90
48007;DHT22;33771;48.180;11.400;2023-11-19T02:58:59;7.90;99.90
48007;DHT22;33771;48.180;11.400;2023-11-19T03:01:28;7.90;99.90
48007;DHT22;33771;48.180;11.400;2023-11-19T03:03:59;8.10;99.90
48007;DHT22;33771;48.180;11.400;2023-11-19T03:06:26;8.10;99.90
48007;DHT22;33771;48.180;11.400;2023-11-19T03:08:54;8.20;99.90
48007;DHT22;33771;48.180;11.400;2023-11-19T03:11:19;8.20;99.90
48007;DHT22;33771;48.180;11.400;2023-11-19T03:13:45;8.30;99.90
48007;DHT22;33771;48.180;11.400;2023-11-19T03:16:12;8.30;99.90
48007;DHT22;33771;48.180;11.400;2023-11-19T03:18:38;8.30;99.90
48007;DHT22;33771;48.180;11.400;2023-11-19T03:21:05;8.40;99.90
48007;DHT22;33771;48.180;11.400;2023-11-19T03:23:31;8.40;99.90
48007;DHT22;33771;48.180;11.400;2023-11-19T03:25:57;8.40;99.90
48007;DHT22;33771;48.180;11.400;2023-11-19T03:28:22;8.50;99.90
48007;DHT22;33771;48.180;11.400;2023-11-19T03:30:48;8.50;99.90
48007;DHT22;33771;48.180;11.400;2023-11-19T03:33:13;8.60;99.90
48007;DHT22;33771;48.180;11.400;2023-11-19T03:35:39;8.60;99.90
48007;DHT22;33771;48.180;11.400;2023-11-19T03:38:06;8.60;99.90
48007;DHT22;33771;48.180;11.400;2023-11-19T03:40:32;8.70;99.90
48007;DHT22;33771;48.180;11.400;2023-11-19T03:42:58;8.70;99.90
48007;DHT22;33771;48.180;11.400;2023-11-19T03:45:24;8.70;99.90
48007;DHT22;33771;48.180;11.400;2023-11-19T03:47:50;8.80;99.90
48007;DHT22;33771;48.180;11.400;2023-11-19T03:50:16;8.80;99.90
48007;DHT22;33771;48.180;11.400;2023-11-19T03:52:41;8.80;99.90
48007;DHT22;33771;48.180;11.400;2023-11-19T03:55:07;8.90;99.90
48007;DHT22;33771;48.180;11.400;2023-11-19T03:57:34;8.90;99.90
48007;DHT22;33771;48.180;11.400;2023-11-19T04:00:00;8.90;99.90
48007;DHT22;33771;48.180;11.400;2023-11-19T04:02:28;9.00;99.90
48007;DHT22;33771;48.180;11.400;2023-11-19T04:04:54;9.00;99.90
48007;DHT22;33771;48.180;11.400;2023-11-19T04:07:20;9.00;99.90
48007;DHT22;33771;48.180;11.400;2023-11-19T04:09:46;9.10;99.90
48007;DHT22;33771;48.180;11.400;2023-11-19T04:12:12;9.10;99.90
48007;DHT22;33771;48.180;11.400;2023-11-19T04:14:39;9.10;99.90
48007;DHT22;33771;48.180;11.400;2023-11-19T04:17:05;9.10;99.90
48007;DHT22;33771;48.180;11.400;2023-11-19T04:19:31;9.10;99.90
48007;DHT22;33771;48.180;11.400;2023-11-19T04:21:58;9.10;99.90
48007;DHT22;33771;48.180;11.400;2023-11-19T04:24:23;9.10;99.90
48007;DHT22;33771;48.180;11.400;2023-11-19T04:26:49;9.10;99.90
48007;DHT22;33771;48.180;11.400;2023-11-19T04:29:16;9.10;99.90
48007;DHT22;33771;48.180;11.400;2023-11-19T04:31:43;9.10;99.90
48007;DHT22;33771;48.180;11.400;2023-11-19T04:34:08;9.20;99.90
48007;DHT22;33771;48.180;11.400;2023-11-19T04:36:34;9.20;99.90
48007;DHT22;33771;48.180;11.400;2023-11-19T04:39:00;9.20;99.90
48007;DHT22;33771;48.180;11.400;2023-11-19T04:41:26;9.20;99.90
48007;DHT22;33771;48.180;11.400;2023-11-19T04:43:55;9.20;99.90
48007;DHT22;33771;48.180;11.400;2023-11-19T04:46:20;9.20;99.90
48007;DHT22;33771;48.180;11.400;2023-11-19T04:48:46;9.20;99.90
48007;DHT22;33771;48.180;11.400;2023-11-19T04:51:11;9.30;99.90
48007;DHT22;33771;48.180;11.400;2023-11-19T04:53:37;9.30;99.90
48007;DHT22;33771;48.180;11.400;2023-11-19T04:56:09;9.40;99.90
48007;DHT22;33771;48.180;11.400;2023-11-19T04:58:35;9.40;99.90
48007;DHT22;33771;48.180;11.400;2023-11-19T05:01:03;9.50;99.90
48007;DHT22;33771;48.180;11.400;2023-11-19T05:03:29;9.40;99.90
48007;DHT22;33771;48.180;11.400;2023-11-19T05:05:54;9.40;99.90
48007;DHT22;33771;48.180;11.400;2023-11-19T05:08:20;9.40;99.90
48007;DHT22;33771;48.180;11.400;2023-11-19T05:10:45;9.40;99.90
48007;DHT22;33771;48.180;11.400;2023-11-19T05:13:11;9.50;99.90
48007;DHT22;33771;48.180;11.400;2023-11-19T05:15:38;9.50;99.90
48007;DHT22;33771;48.180;11.400;2023-11-19T05:18:03;9.50;99.90
48007;DHT22;33771;48.180;11.400;2023-11-19T05:20:30;9.50;99.90
48007;DHT22;33771;48.180;11.400;2023-11-19T05:22:55;9.50;99.90
48007;DHT22;33771;48.180;11.400;2023-11-19T05:25:21;9.50;99.90
48007;DHT22;33771;48.180;11.400;2023-11-19T05:27:47;9.50;99.90
48007;DHT22;33771;48.180;11.400;2023-11-19T05:30:12;9.50;99.90
48007;DHT22;33771;48.180;11.400;2023-11-19T05:32:39;9.50;99.90
48007;DHT22;33771;48.180;11.400;2023-11-19T05:35:05;9.50;99.90
48007;DHT22;33771;48.180;11.400;2023-11-19T05:37:31;9.50;99.90
48007;DHT22;33771;48.180;11.400;2023-11-19T05:39:56;9.40;99.90
48007;DHT22;33771;48.180;11.400;2023-11-19T05:42:22;9.40;99.90
48007;DHT22;33771;48.180;11.400;2023-11-19T05:44:49;9.40;99.90
48007;DHT22;33771;48.180;11.400;2023-11-19T05:47:14;9.40;99.90
48007;DHT22;33771;48.180;11.400;2023-11-19T05:49:40;9.50;99.90
48007;DHT22;33771;48.180;11.400;2023-11-19T05:52:06;9.50;99.90
48007;DHT22;33771;48.180;11.400;2023-11-19T05:54:33;9.50;99.90
48007;DHT22;33771;48.180;11.400;2023-11-19T05:57:04;9.50;99.90
48007;DHT22;33771;48.180;11.400;2023-11-19T05:59:29;9.50;99.90
48007;DHT22;33771;48.180;11.400;2023-11-19T06:01:55;9.50;99.90
48007;DHT22;33771;48.180;11.400;2023-11-19T06:04:22;9.50;99.90
48007;DHT22;33771;48.180;11.400;2023-11-19T06:06:48;9.60;99.90
48007;DHT22;33771;48.180;11.400;2023-11-19T06:09:14;9.60;99.90
48007;DHT22;33771;48.180;11.400;2023-11-19T06:11:39;9.60;99.90
48007;DHT22;33771;48.180;11.400;2023-11-19T06:14:06;9.60;99.90
48007;DHT22;33771;48.180;11.400;2023-11-19T06:16:32;9.60;99.90
48007;DHT22;33771;48.180;11.400;2023-11-19T06:18:58;9.50;99.90
48007;DHT22;33771;48.180;11.400;2023-11-19T06:21:23;9.60;99.90
48007;DHT22;33771;48.180;11.400;2023-11-19T06:23:50;9.60;99.90
48007;DHT22;33771;48.180;11.400;2023-11-19T06:26:17;9.60;99.90
48007;DHT22;33771;48.180;11.400;2023-11-19T06:28:43;9.70;99.90
48007;DHT22;33771;48.180;11.400;2023-11-19T06:31:09;9.60;99.90
48007;DHT22;33771;48.180;11.400;2023-11-19T06:33:35;9.60;99.90
48007;DHT22;33771;48.180;11.400;2023-11-19T06:36:00;9.60;99.90
48007;DHT22;33771;48.180;11.400;2023-11-19T06:38:26;9.70;99.90
48007;DHT22;33771;48.180;11.400;2023-11-19T06:40:51;9.70;99.90
48007;DHT22;33771;48.180;11.400;2023-11-19T06:43:17;9.80;99.90
48007;DHT22;33771;48.180;11.400;2023-11-19T06:45:43;9.80;99.90
48007;DHT22;33771;48.180;11.400;2023-11-19T06:48:08;9.80;99.90
48007;DHT22;33771;48.180;11.400;2023-11-19T06:50:34;9.80;99.90
48007;DHT22;33771;48.180;11.400;2023-11-19T06:53:00;9.90;99.90
48007;DHT22;33771;48.180;11.400;2023-11-19T06:55:26;9.90;99.90
48007;DHT22;33771;48.180;11.400;2023-11-19T06:57:52;9.90;99.90
48007;DHT22;33771;48.180;11.400;2023-11-19T07:00:17;9.90;99.90
48007;DHT22;33771;48.180;11.400;2023-11-19T07:02:44;9.90;99.90
48007;DHT22;33771;48.180;11.400;2023-11-19T07:05:10;9.90;99.90
48007;DHT22;33771;48.180;11.400;2023-11-19T07:07:37;9.90;99.90
48007;DHT22;33771;48.180;11.400;2023-11-19T07:10:03;9.90;99.90
48007;DHT22;33771;48.180;11.400;2023-11-19T07:12:30;9.80;99.90
48007;DHT22;33771;48.180;11.400;2023-11-19T07:14:55;9.90;99.90
48007;DHT22;33771;48.180;11.400;2023-11-19T07:17:21;10.00;99.90
48007;DHT22;33771;48.180;11.400;2023-11-19T07:19:49;10.00;99.90
48007;DHT22;33771;48.180;11.400;2023-11-19T07:22:15;10.00;99.90
48007;DHT22;33771;48.180;11.400;2023-11-19T07:24:41;10.00;99.90
48007;DHT22;33771;48.180;11.400;2023-11-19T07:27:07;10.00;99.90
48007;DHT22;33771;48.180;11.400;2023-11-19T07:29:34;10.10;99.90
48007;DHT22;33771;48.180;11.400;2023-11-19T07:32:00;10.10;99.90
48007;DHT22;33771;48.180;11.400;2023-11-19T07:34:27;10.00;99.90
48007;DHT22;33771;48.180;11.400;2023-11-19T07:36:53;10.10;99.90
48007;DHT22;33771;48.180;11.400;2023-11-19T07:39:19;10.10;99.90
48007;DHT22;33771;48.180;11.400;2023-11-19T07:41:46;10.10;99.90
48007;DHT22;33771;48.180;11.400;2023-11-19T07:44:11;10.10;99.90
48007;DHT22;33771;48.180;11.400;2023-11-19T07:46:37;10.10;99.90
48007;DHT22;33771;48.180;11.400;2023-11-19T07:49:03;10.20;99.90
48007;DHT22;33771;48.180;11.400;2023-11-19T07:51:28;10.20;99.90
48007;DHT22;33771;48.180;11.400;2023-11-19T07:53:54;10.20;99.90
48007;DHT22;33771;48.180;11.400;2023-11-19T07:56:19;10.20;99.90
48007;DHT22;33771;48.180;11.400;2023-11-19T07:58:45;10.20;99.90
48007;DHT22;33771;48.180;11.400;2023-11-19T08:01:10;10.20;99.90
48007;DHT22;33771;48.180;11.400;2023-11-19T08:03:36;10.30;99.90
48007;DHT22;33771;48.180;11.400;2023-11-19T08:06:03;10.30;99.90
48007;DHT22;33771;48.180;11.400;2023-11-19T08:08:28;10.40;99.90
48007;DHT22;33771;48.180;11.400;2023-11-19T08:10:56;10.40;99.90
48007;DHT22;33771;48.180;11.400;2023-11-19T08:13:23;10.50;99.90
48007;DHT22;33771;48.180;11.400;2023-11-19T08:15:48;10.50;99.90
48007;DHT22;33771;48.180;11.400;2023-11-19T08:18:14;10.60;99.90
48007;DHT22;33771;48.180;11.400;2023-11-19T08:20:39;10.60;99.90
48007;DHT22;33771;48.180;11.400;2023-11-19T08:23:06;10.60;99.90
48007;DHT22;33771;48.180;11.400;2023-11-19T08:25:32;10.70;99.90
48007;DHT22;33771;48.180;11.400;2023-11-19T08:27:59;10.80;99.90
48007;DHT22;33771;48.180;11.400;2023-11-19T08:30:24;10.80;99.90
48007;DHT22;33771;48.180;11.400;2023-11-19T08:32:50;10.80;99.90
48007;DHT22;33771;48.180;11.400;2023-11-19T08:35:16;10.80;99.90
48007;DHT22;33771;48.180;11.400;2023-11-19T08:37:41;10.80;99.90
48007;DHT22;33771;48.180;11.400;2023-11-19T08:40:07;10.90;99.90
48007;DHT22;33771;48.180;11.400;2023-11-19T08:42:33;10.90;99.90
48007;DHT22;33771;48.180;11.400;2023-11-19T08:44:59;11.00;99.90
48007;DHT22;33771;48.180;11.400;2023-11-19T08:47:24;11.00;99.90
48007;DHT22;33771;48.180;11.400;2023-11-19T10:26:40;12.70;99.90
48007;DHT22;33771;48.180;11.400;2023-11-19T21:06:35;10.60;99.90
48007;DHT22;33771;48.180;11.400;2023-11-19T21:09:33;10.60;99.90
48007;DHT22;33771;48.180;11.400;2023-11-19T21:12:42;10.60;99.90
48007;DHT22;33771;48.180;11.400;2023-11-19T22:01:44;10.80;99.90
48007;DHT22;33771;48.180;11.400;2023-11-19T22:04:10;10.80;99.90
48007;DHT22;33771;48.180;11.400;2023-11-19T22:06:35;10.80;99.90
48007;DHT22;33771;48.180;11.400;2023-11-19T22:09:01;10.80;99.90
48007;DHT22;33771;48.180;11.400;2023-11-19T22:11:26;10.80;99.90
48007;DHT22;33771;48.180;11.400;2023-11-19T22:13:53;10.80;99.90
48007;DHT22;33771;48.180;11.400;2023-11-19T22:16:20;10.80;99.90
48007;DHT22;33771;48.180;11.400;2023-11-19T22:18:45;10.80;99.90
48007;DHT22;33771;48.180;11.400;2023-11-19T22:21:11;10.80;99.90
48007;DHT22;33771;48.180;11.400;2023-11-19T22:23:37;10.80;99.90
48007;DHT22;33771;48.180;11.400;2023-11-19T22:26:02;10.80;99.90
48007;DHT22;33771;48.180;11.400;2023-11-19T22:28:28;10.70;99.90
48007;DHT22;33771;48.180;11.400;2023-11-19T22:30:54;10.60;99.90
48007;DHT22;33771;48.180;11.400;2023-11-19T22:33:20;10.70;99.90
48007;DHT22;33771;48.180;11.400;2023-11-19T22:35:46;10.60;99.90
48007;DHT22;33771;48.180;11.400;2023-11-19T22:38:12;10.70;99.90
48007;DHT22;33771;48.180;11.400;2023-11-19T22:40:37;10.60;99.90
48007;DHT22;33771;48.180;11.400;2023-11-19T22:43:03;10.50;99.90
48007;DHT22;33771;48.180;11.400;2023-11-19T22:45:28;10.50;99.90
48007;DHT22;33771;48.180;11.400;2023-11-19T22:47:54;10.50;99.90
48007;DHT22;33771;48.180;11.400;2023-11-19T22:50:20;10.50;99.90
48007;DHT22;33771;48.180;11.400;2023-11-19T22:52:45;10.40;99.90
48007;DHT22;33771;48.180;11.400;2023-11-19T22:55:11;10.40;99.90
48007;DHT22;33771;48.180;11.400;2023-11-19T22:57:36;10.50;99.90
48007;DHT22;33771;48.180;11.400;2023-11-19T23:00:03;10.50;99.90
48007;DHT22;33771;48.180;11.400;2023-11-19T23:02:34;10.50;99.90
48007;DHT22;33771;48.180;11.400;2023-11-19T23:05:01;10.50;99.90
48007;DHT22;33771;48.180;11.400;2023-11-19T23:07:27;10.60;99.90
48007;DHT22;33771;48.180;11.400;2023-11-19T23:09:53;10.60;99.90
48007;DHT22;33771;48.180;11.400;2023-11-19T23:12:18;10.60;99.90
48007;DHT22;33771;48.180;11.400;2023-11-19T23:14:44;10.60;99.90
48007;DHT22;33771;48.180;11.400;2023-11-19T23:17:10;10.60;99.90
48007;DHT22;33771;48.180;11.400;2023-11-19T23:19:43;10.60;99.90
48007;DHT22;33771;48.180;11.400;2023-11-19T23:22:08;10.50;99.90
48007;DHT22;33771;48.180;11.400;2023-11-19T23:24:34;10.50;99.90
48007;DHT22;33771;48.180;11.400;2023-11-19T23:26:59;10.40;99.90
48007;DHT22;33771;48.180;11.400;2023-11-19T23:29:26;10.40;99.90
48007;DHT22;33771;48.180;11.400;2023-11-19T23:31:51;10.40;99.90
48007;DHT22;33771;48.180;11.400;2023-11-19T23:34:17;10.40;99.90
48007;DHT22;33771;48.180;11.400;2023-11-19T23:36:42;10.40;99.90
48007;DHT22;33771;48.180;11.400;2023-11-19T23:39:08;10.40;99.90
48007;DHT22;33771;48.180;11.400;2023-11-19T23:41:34;10.40;99.90
48007;DHT22;33771;48.180;11.400;2023-11-19T23:43:59;10.30;99.90
48007;DHT22;33771;48.180;11.400;2023-11-19T23:46:25;10.30;99.90
48007;DHT22;33771;48.180;11.400;2023-11-19T23:48:51;10.30;99.90
48007;DHT22;33771;48.180;11.400;2023-11-19T23:51:18;10.30;99.90
48007;DHT22;33771;48.180;11.400;2023-11-19T23:53:43;10.20;99.90
48007;DHT22;33771;48.180;11.400;2023-11-19T23:56:10;10.20;99.90
48007;DHT22;33771;48.180;11.400;2023-11-19T23:58:36;10.20;99.90
